Time;durP1;ratioP1;P1;durP2;ratioP2;P2;SDS_P1;SDS_P2;PMS_P1;PMS_P2;Temp;Humidity;BMP_temperature;BMP_pressure;BME280_temperature;BME280_humidity;BME280_pressure;Samples;Min_cycle;Max_cycle;Signal;HPM_P1;HPM_P2
2024/01/02 00:00:22;;;;;;;5.63;1.10;;;;;8.60;97678.00;;;;5074747;28;20087;-62
2024/01/02 00:02:49;;;;;;;2.42;1.13;;;;;8.60;97663.00;;;;5074403;28;20470;-62
2024/01/02 00:05:16;;;;;;;3.00;1.13;;;;;8.60;97668.00;;;;5074054;28;20045;-62
2024/01/02 00:07:43;;;;;;;2.80;1.35;;;;;8.60;97653.00;;;;5074497;28;20037;-63
2024/01/02 00:10:10;;;;;;;6.28;1.92;;;;;8.60;97650.00;;;;5074384;28;20472;-62
2024/01/02 00:12:36;;;;;;;1.90;1.08;;;;;8.60;97635.00;;;;5074535;28;20501;-62
2024/01/02 00:15:03;;;;;;;1.80;1.40;;;;;8.60;97637.00;;;;5073610;28;20052;-62
2024/01/02 00:17:30;;;;;;;1.88;1.25;;;;;8.60;97625.00;;;;5074144;28;20056;-62
2024/01/02 00:19:57;;;;;;;1.90;1.20;;;;;8.50;97627.00;;;;5074183;28;20041;-62
2024/01/02 00:22:23;;;;;;;2.40;1.52;;;;;8.50;97620.00;;;;5074259;28;20070;-62
2024/01/02 00:24:50;;;;;;;2.53;1.13;;;;;8.50;97620.00;;;;5073733;28;20041;-62
2024/01/02 00:27:17;;;;;;;3.53;1.48;;;;;8.50;97609.00;;;;5072595;28;20045;-62
2024/01/02 00:29:43;;;;;;;4.43;2.15;;;;;8.50;97608.00;;;;5056076;28;20080;-62
2024/01/02 00:32:10;;;;;;;2.30;1.15;;;;;8.50;97591.00;;;;5072567;28;20075;-62
2024/01/02 00:34:36;;;;;;;5.00;1.40;;;;;8.50;97600.00;;;;5073409;28;20571;-62
2024/01/02 00:37:03;;;;;;;3.60;1.45;;;;;8.50;97583.00;;;;5072688;28;20127;-64
2024/01/02 00:39:30;;;;;;;2.67;1.20;;;;;8.50;97580.00;;;;5073839;28;20075;-65
2024/01/02 00:41:56;;;;;;;2.28;1.23;;;;;8.50;97577.00;;;;5072567;28;20048;-64
2024/01/02 00:44:25;;;;;;;2.45;1.27;;;;;8.50;97566.00;;;;5071997;28;20116;-64
2024/01/02 00:46:52;;;;;;;2.38;0.90;;;;;8.50;97560.00;;;;5072245;28;20048;-65
2024/01/02 00:49:18;;;;;;;3.22;1.25;;;;;8.50;97567.00;;;;5072118;28;20040;-64
2024/01/02 00:51:45;;;;;;;3.55;1.27;;;;;8.60;97555.00;;;;5072394;28;20485;-65
2024/01/02 00:54:13;;;;;;;1.95;0.98;;;;;8.50;97553.00;;;;5072815;28;20044;-62
2024/01/02 00:56:39;;;;;;;3.40;1.15;;;;;8.50;97546.00;;;;5073365;28;20045;-63
2024/01/02 00:59:06;;;;;;;2.28;1.20;;;;;8.60;97547.00;;;;5073143;28;20135;-63
2024/01/02 01:01:33;;;;;;;4.10;1.38;;;;;8.60;97545.00;;;;5073700;28;20051;-62
2024/01/02 01:03:59;;;;;;;2.15;1.40;;;;;8.60;97545.00;;;;5072677;28;20051;-63
2024/01/02 01:06:26;;;;;;;5.10;1.27;;;;;8.60;97528.00;;;;5072481;28;20048;-63
2024/01/02 01:08:53;;;;;;;2.45;1.25;;;;;8.60;97531.00;;;;5073036;28;20047;-62
2024/01/02 01:11:20;;;;;;;3.08;0.98;;;;;8.60;97526.00;;;;5072990;28;20131;-62
2024/01/02 01:13:47;;;;;;;2.92;1.30;;;;;8.60;97517.00;;;;5071368;28;20326;-63
2024/01/02 01:16:14;;;;;;;3.40;1.10;;;;;8.50;97514.00;;;;5073528;28;20044;-65
2024/01/02 01:18:40;;;;;;;2.25;1.20;;;;;8.60;97520.00;;;;5072923;28;20124;-63
2024/01/02 01:21:07;;;;;;;1.52;1.02;;;;;8.60;97505.00;;;;5071784;28;20072;-63
2024/01/02 01:23:34;;;;;;;2.88;1.02;;;;;8.60;97504.00;;;;5071067;28;20059;-63
2024/01/02 01:26:01;;;;;;;2.17;0.95;;;;;8.50;97512.00;;;;5071609;28;20505;-62
2024/01/02 01:28:29;;;;;;;1.67;1.10;;;;;8.50;97500.00;;;;5072776;28;20033;-63
2024/01/02 01:30:55;;;;;;;1.70;1.10;;;;;8.50;97501.00;;;;5071540;28;20144;-63
2024/01/02 01:33:22;;;;;;;2.58;1.10;;;;;8.50;97483.00;;;;5071104;28;20047;-63
2024/01/02 01:35:49;;;;;;;2.20;1.30;;;;;8.50;97477.00;;;;5072634;28;20048;-63
2024/01/02 01:38:15;;;;;;;1.25;1.05;;;;;8.40;97478.00;;;;5072512;28;20477;-63
2024/01/02 01:40:42;;;;;;;2.45;1.20;;;;;8.40;97472.00;;;;5071117;28;20048;-63
2024/01/02 01:43:14;;;;;;;1.90;1.00;;;;;8.40;97463.00;;;;5055187;28;20471;-64
2024/01/02 01:45:41;;;;;;;2.33;1.08;;;;;8.40;97471.00;;;;5072063;28;20040;-63
2024/01/02 01:48:10;;;;;;;2.38;1.20;;;;;8.40;97468.00;;;;5072286;28;20262;-63
2024/01/02 01:50:38;;;;;;;3.08;1.35;;;;;8.40;97455.00;;;;5071199;28;20490;-64
2024/01/02 01:53:06;;;;;;;3.92;1.27;;;;;8.40;97445.00;;;;5070969;28;20049;-63
2024/01/02 01:55:33;;;;;;;1.48;0.90;;;;;8.30;97447.00;;;;5071163;28;20450;-63
2024/01/02 01:58:00;;;;;;;1.15;1.00;;;;;8.30;97448.00;;;;5071211;28;20045;-63
2024/01/02 02:00:27;;;;;;;2.75;1.00;;;;;8.30;97434.00;;;;5071022;28;20044;-63
2024/01/02 02:02:54;;;;;;;1.65;0.98;;;;;8.30;97426.00;;;;5071054;28;20041;-64
2024/01/02 02:05:24;;;;;;;2.10;0.95;;;;;8.30;97410.00;;;;5071325;28;20469;-64
2024/01/02 02:07:53;;;;;;;4.55;1.08;;;;;8.20;97411.00;;;;5071822;28;20040;-62
2024/01/02 02:10:20;;;;;;;1.17;0.90;;;;;8.20;97418.00;;;;5072000;28;20119;-63
2024/01/02 02:12:47;;;;;;;0.90;0.90;;;;;8.20;97407.00;;;;5070774;28;20048;-62
2024/01/02 02:15:14;;;;;;;1.10;0.90;;;;;8.20;97405.00;;;;5070491;28;20055;-63
2024/01/02 02:17:43;;;;;;;1.30;0.88;;;;;8.20;97402.00;;;;5070637;28;20079;-62
2024/01/02 02:20:10;;;;;;;1.92;1.10;;;;;8.20;97397.00;;;;5070717;28;20093;-63
2024/01/02 02:22:38;;;;;;;0.90;0.70;;;;;8.20;97388.00;;;;5070660;28;20052;-64
2024/01/02 02:25:06;;;;;;;2.80;0.93;;;;;8.20;97369.00;;;;5070133;28;20074;-64
2024/01/02 02:27:34;;;;;;;1.42;0.85;;;;;8.20;97355.00;;;;5071956;28;20478;-63
2024/01/02 02:30:00;;;;;;;3.17;1.00;;;;;8.30;97342.00;;;;5070702;28;20051;-64
2024/01/02 02:32:27;;;;;;;1.58;0.65;;;;;8.30;97325.00;;;;5070754;28;20444;-63
2024/01/02 02:34:54;;;;;;;1.27;1.00;;;;;8.20;97317.00;;;;5071469;28;20497;-64
2024/01/02 02:37:21;;;;;;;1.55;0.80;;;;;8.20;97299.00;;;;5072080;28;20040;-64
2024/01/02 02:39:47;;;;;;;1.50;0.55;;;;;8.20;97293.00;;;;5071852;28;20045;-64
2024/01/02 02:42:14;;;;;;;0.73;0.70;;;;;8.30;97291.00;;;;5070585;28;20040;-64
2024/01/02 02:44:42;;;;;;;1.48;0.90;;;;;8.20;97277.00;;;;5071522;28;20041;-64
2024/01/02 02:47:10;;;;;;;0.98;0.80;;;;;8.30;97273.00;;;;5070675;28;20052;-64
2024/01/02 02:49:38;;;;;;;0.80;0.80;;;;;8.30;97254.00;;;;5072000;28;20037;-64
2024/01/02 02:52:06;;;;;;;1.02;0.70;;;;;8.30;97239.00;;;;5070834;28;20058;-64
2024/01/02 02:54:33;;;;;;;0.70;0.70;;;;;8.30;97234.00;;;;5070198;28;20441;-64
2024/01/02 02:57:00;;;;;;;1.33;0.80;;;;;8.30;97223.00;;;;5071708;28;20460;-65
2024/01/02 02:59:27;;;;;;;0.70;0.70;;;;;8.40;97221.00;;;;5071792;28;20040;-63
2024/01/02 03:01:53;;;;;;;0.63;0.63;;;;;8.40;97228.00;;;;5070331;28;20473;-65
2024/01/02 03:04:20;;;;;;;1.02;0.60;;;;;8.40;97223.00;;;;5071039;28;20052;-65
2024/01/02 03:06:46;;;;;;;0.90;0.60;;;;;8.50;97212.00;;;;5072244;28;20132;-63
2024/01/02 03:09:13;;;;;;;1.45;0.85;;;;;8.40;97212.00;;;;5073975;28;20048;-64
2024/01/02 03:11:40;;;;;;;2.20;0.75;;;;;8.40;97211.00;;;;5075423;28;20127;-64
2024/01/02 03:14:06;;;;;;;1.20;0.70;;;;;8.40;97212.00;;;;5074771;28;20087;-64
2024/01/02 03:16:34;;;;;;;0.73;0.70;;;;;8.40;97204.00;;;;5075229;28;20119;-64
2024/01/02 03:19:00;;;;;;;1.17;0.50;;;;;8.40;97198.00;;;;5074169;28;20044;-65
2024/01/02 03:21:28;;;;;;;1.25;0.80;;;;;8.40;97211.00;;;;5075140;28;20494;-64
2024/01/02 03:23:56;;;;;;;0.75;0.50;;;;;8.40;97188.00;;;;5073367;28;20421;-64
2024/01/02 03:26:22;;;;;;;0.82;0.60;;;;;8.50;97179.00;;;;5075191;28;20071;-64
2024/01/02 03:28:49;;;;;;;1.27;0.55;;;;;8.40;97177.00;;;;5075027;28;20043;-64
2024/01/02 03:31:16;;;;;;;2.17;0.70;;;;;8.40;97174.00;;;;5075346;28;20502;-64
2024/01/02 03:33:43;;;;;;;1.85;1.02;;;;;8.40;97163.00;;;;5074719;28;20048;-64
2024/01/02 03:36:18;;;;;;;0.70;0.63;;;;;8.40;97157.00;;;;5075172;28;20132;-63
2024/01/02 03:38:45;;;;;;;0.63;0.57;;;;;8.40;97161.00;;;;5075021;28;20044;-64
2024/01/02 03:41:12;;;;;;;4.60;0.70;;;;;8.40;97158.00;;;;5074858;28;20052;-63
2024/01/02 03:43:39;;;;;;;0.98;0.50;;;;;8.40;97138.00;;;;5072993;28;20464;-64
2024/01/02 03:46:06;;;;;;;0.73;0.63;;;;;8.50;97136.00;;;;5074938;28;20075;-63
2024/01/02 03:48:33;;;;;;;0.50;0.50;;;;;8.50;97139.00;;;;5073630;28;20067;-63
2024/01/02 03:51:03;;;;;;;1.05;0.50;;;;;8.50;97143.00;;;;5074939;28;20098;-63
2024/01/02 03:53:30;;;;;;;0.60;0.60;;;;;8.50;97133.00;;;;5074467;28;20625;-64
2024/01/02 03:55:57;;;;;;;1.00;0.68;;;;;8.50;97120.00;;;;5074937;28;20050;-63
2024/01/02 03:58:24;;;;;;;0.98;0.60;;;;;8.60;97110.00;;;;5074722;28;20555;-62
2024/01/02 04:00:51;;;;;;;0.73;0.60;;;;;8.60;97106.00;;;;5074897;28;20131;-63
2024/01/02 04:03:18;;;;;;;0.60;0.60;;;;;8.60;97099.00;;;;5074517;28;20051;-63
2024/01/02 04:05:45;;;;;;;0.50;0.50;;;;;8.60;97094.00;;;;5073235;28;20498;-64
2024/01/02 04:08:12;;;;;;;1.23;0.60;;;;;8.60;97094.00;;;;5074387;28;20562;-64
2024/01/02 04:10:39;;;;;;;1.23;0.60;;;;;8.70;97077.00;;;;5074343;28;20514;-63
2024/01/02 04:13:06;;;;;;;0.60;0.60;;;;;8.70;97062.00;;;;5073170;28;20505;-64
2024/01/02 04:15:33;;;;;;;1.17;0.60;;;;;8.60;97050.00;;;;5073777;28;20040;-64
2024/01/02 04:18:00;;;;;;;1.05;0.82;;;;;8.60;97041.00;;;;5073860;28;20048;-64
2024/01/02 04:20:27;;;;;;;0.55;0.45;;;;;8.60;97045.00;;;;5074205;28;20041;-63
2024/01/02 04:22:54;;;;;;;0.82;0.68;;;;;8.60;97044.00;;;;5074189;28;20390;-64
2024/01/02 04:25:21;;;;;;;0.80;0.60;;;;;8.70;97047.00;;;;5073297;28;20094;-64
2024/01/02 04:27:52;;;;;;;0.93;0.65;;;;;8.60;97042.00;;;;5074058;28;20098;-64
2024/01/02 04:30:19;;;;;;;0.90;0.60;;;;;8.60;97045.00;;;;5074063;28;20349;-64
2024/01/02 04:32:45;;;;;;;0.60;0.60;;;;;8.60;97026.00;;;;5072772;28;20122;-64
2024/01/02 04:35:12;;;;;;;0.60;0.60;;;;;8.50;97026.00;;;;5073360;28;20493;-64
2024/01/02 04:37:39;;;;;;;1.02;0.70;;;;;8.50;97012.00;;;;5073853;28;20045;-64
2024/01/02 04:40:06;;;;;;;0.85;0.50;;;;;8.60;97015.00;;;;5073736;28;20102;-64
2024/01/02 04:42:35;;;;;;;1.10;0.55;;;;;8.60;96988.00;;;;5073987;28;20056;-61
2024/01/02 04:45:03;;;;;;;0.73;0.60;;;;;8.60;96993.00;;;;5073465;28;20420;-63
2024/01/02 04:47:29;;;;;;;0.50;0.50;;;;;8.60;96993.00;;;;5073662;28;20075;-61
2024/01/02 04:49:57;;;;;;;0.52;0.43;;;;;8.60;96998.00;;;;5072669;28;20040;-61
2024/01/02 04:52:23;;;;;;;0.73;0.73;;;;;8.60;96969.00;;;;5075536;28;20120;-61
2024/01/02 04:54:50;;;;;;;0.47;0.47;;;;;8.60;96991.00;;;;5074378;28;20128;-61
2024/01/02 04:57:16;;;;;;;1.35;0.50;;;;;8.60;96989.00;;;;5075127;28;20481;-61
2024/01/02 04:59:43;;;;;;;0.57;0.50;;;;;8.60;96987.00;;;;5074472;28;20516;-61
2024/01/02 05:02:13;;;;;;;1.48;0.70;;;;;8.60;96982.00;;;;5074662;28;20040;-60
2024/01/02 05:04:40;;;;;;;0.50;0.50;;;;;8.70;97000.00;;;;5072629;28;20516;-61
2024/01/02 05:07:07;;;;;;;1.13;0.60;;;;;8.70;97002.00;;;;5073165;28;20123;-62
2024/01/02 05:09:34;;;;;;;1.08;0.60;;;;;8.80;96985.00;;;;5073150;28;20040;-61
2024/01/02 05:12:00;;;;;;;1.15;0.73;;;;;8.80;96966.00;;;;5073254;28;20127;-62
2024/01/02 05:14:27;;;;;;;0.60;0.60;;;;;8.80;96951.00;;;;5072914;28;20127;-61
2024/01/02 05:16:54;;;;;;;0.63;0.50;;;;;8.80;96952.00;;;;5073079;28;20045;-61
2024/01/02 05:19:21;;;;;;;0.50;0.50;;;;;8.80;96949.00;;;;5073090;28;20440;-61
2024/01/02 05:21:51;;;;;;;0.40;0.40;;;;;8.90;96946.00;;;;5073819;28;20489;-61
2024/01/02 05:24:17;;;;;;;0.50;0.50;;;;;8.80;96947.00;;;;5072748;28;20417;-61
2024/01/02 05:26:44;;;;;;;0.60;0.60;;;;;8.80;96943.00;;;;5073573;28;20069;-61
2024/01/02 05:29:10;;;;;;;0.57;0.57;;;;;8.80;96947.00;;;;5072953;28;20086;-61
2024/01/02 05:31:37;;;;;;;0.50;0.50;;;;;8.80;96943.00;;;;5071993;28;20060;-61
2024/01/02 05:34:04;;;;;;;0.52;0.50;;;;;8.90;96933.00;;;;5072516;28;20041;-61
2024/01/02 05:36:31;;;;;;;0.73;0.50;;;;;8.80;96952.00;;;;5072936;28;20044;-60
2024/01/02 05:38:57;;;;;;;0.50;0.50;;;;;8.90;96945.00;;;;5071619;28;20051;-62
2024/01/02 05:41:24;;;;;;;9.57;1.60;;;;;8.90;96940.00;;;;5071639;28;20116;-62
2024/01/02 05:43:51;;;;;;;0.40;0.40;;;;;8.90;96943.00;;;;5072233;28;20049;-61
2024/01/02 05:46:17;;;;;;;0.70;0.70;;;;;8.90;96933.00;;;;5072946;28;20071;-63
2024/01/02 05:48:44;;;;;;;1.08;0.60;;;;;8.90;96955.00;;;;5072451;28;20421;-62
2024/01/02 05:51:11;;;;;;;0.52;0.50;;;;;8.90;96944.00;;;;5071476;28;20053;-62
2024/01/02 05:53:37;;;;;;;0.90;0.70;;;;;8.90;96974.00;;;;5071970;28;20103;-62
2024/01/02 05:56:04;;;;;;;1.02;0.60;;;;;8.80;96937.00;;;;5054603;28;20048;-62
2024/01/02 05:58:31;;;;;;;0.85;0.63;;;;;8.80;96936.00;;;;5072499;28;20059;-62
2024/01/02 06:00:58;;;;;;;0.85;0.63;;;;;8.80;96938.00;;;;5070944;28;20055;-62
2024/01/02 06:03:25;;;;;;;1.10;0.75;;;;;8.80;96930.00;;;;5071635;28;20040;-61
2024/01/02 06:05:52;;;;;;;1.88;0.63;;;;;8.70;96928.00;;;;5072505;28;20051;-61
2024/01/02 06:08:18;;;;;;;1.02;0.77;;;;;8.70;96933.00;;;;5072359;28;20045;-62
2024/01/02 06:10:45;;;;;;;0.85;0.85;;;;;8.80;96931.00;;;;5054189;28;20044;-62
2024/01/02 06:13:13;;;;;;;0.40;0.40;;;;;8.70;96932.00;;;;5072259;28;20044;-62
2024/01/02 06:15:40;;;;;;;0.73;0.57;;;;;8.70;96929.00;;;;5070470;28;20127;-62
2024/01/02 06:18:07;;;;;;;0.52;0.52;;;;;8.70;96929.00;;;;5072170;28;20409;-62
2024/01/02 06:20:34;;;;;;;0.88;0.70;;;;;8.70;96948.00;;;;5072150;28;20490;-61
2024/01/02 06:23:01;;;;;;;0.75;0.52;;;;;8.60;96947.00;;;;5072397;28;20459;-62
2024/01/02 06:25:27;;;;;;;0.75;0.60;;;;;8.60;96932.00;;;;5070116;28;20513;-62
2024/01/02 06:27:54;;;;;;;0.60;0.60;;;;;8.60;96942.00;;;;5071009;28;20065;-61
2024/01/02 06:30:22;;;;;;;1.80;0.90;;;;;8.60;96952.00;;;;5072018;28;20036;-62
2024/01/02 06:32:49;;;;;;;0.75;0.70;;;;;8.60;96945.00;;;;5071818;28;20430;-62
2024/01/02 06:35:16;;;;;;;0.95;0.80;;;;;8.60;96955.00;;;;5071272;28;20044;-62
2024/01/02 06:37:42;;;;;;;3.50;2.30;;;;;8.60;96965.00;;;;5070592;28;20094;-62
2024/01/02 06:40:10;;;;;;;0.70;0.70;;;;;8.60;96957.00;;;;5072025;28;20041;-62
2024/01/02 06:42:37;;;;;;;0.40;0.40;;;;;8.60;96978.00;;;;5074410;28;20059;-62
2024/01/02 06:45:04;;;;;;;0.70;0.60;;;;;8.60;96975.00;;;;5075334;28;20413;-61
2024/01/02 06:47:30;;;;;;;1.55;0.82;;;;;8.60;96960.00;;;;5075896;28;20449;-62
2024/01/02 06:49:57;;;;;;;1.20;0.50;;;;;8.60;96959.00;;;;5074575;28;20126;-61
2024/01/02 06:52:24;;;;;;;0.40;0.40;;;;;8.50;96973.00;;;;5075933;28;20044;-63
2024/01/02 06:54:50;;;;;;;1.27;0.45;;;;;8.50;96975.00;;;;5074038;28;20044;-62
2024/01/02 06:57:17;;;;;;;1.42;0.43;;;;;8.50;96967.00;;;;5075527;28;20438;-62
2024/01/02 06:59:45;;;;;;;0.60;0.50;;;;;8.60;96963.00;;;;5074530;28;20044;-62
2024/01/02 07:02:11;;;;;;;0.47;0.47;;;;;8.60;96978.00;;;;5075518;28;20044;-62
2024/01/02 07:04:38;;;;;;;0.40;0.40;;;;;8.60;96996.00;;;;5075267;28;20053;-62
2024/01/02 07:07:05;;;;;;;0.40;0.40;;;;;8.60;96984.00;;;;5073921;28;20040;-62
2024/01/02 07:09:31;;;;;;;1.95;0.50;;;;;8.70;96973.00;;;;5075372;28;20119;-62
2024/01/02 07:11:58;;;;;;;0.50;0.50;;;;;8.70;96984.00;;;;5074314;28;20115;-62
2024/01/02 07:14:24;;;;;;;1.30;0.60;;;;;8.70;97004.00;;;;5073710;28;20124;-62
2024/01/02 07:16:51;;;;;;;1.13;0.68;;;;;8.70;97004.00;;;;5075250;28;20044;-62
2024/01/02 07:19:17;;;;;;;0.57;0.57;;;;;8.60;97021.00;;;;5073922;28;20147;-62
2024/01/02 07:21:44;;;;;;;0.40;0.40;;;;;8.70;96993.00;;;;5074077;28;20456;-61
2024/01/02 07:24:11;;;;;;;1.95;0.50;;;;;8.60;97015.00;;;;5074753;28;20497;-63
2024/01/02 07:26:37;;;;;;;0.52;0.52;;;;;8.60;97001.00;;;;5075085;28;20048;-62
2024/01/02 07:29:04;;;;;;;0.88;0.60;;;;;8.60;97002.00;;;;5073745;28;20413;-62
2024/01/02 07:31:32;;;;;;;0.63;0.63;;;;;8.60;97009.00;;;;5073812;28;20040;-63
2024/01/02 07:33:59;;;;;;;0.50;0.50;;;;;8.60;97012.00;;;;5073030;28;20436;-62
2024/01/02 07:36:26;;;;;;;0.50;0.50;;;;;8.60;97014.00;;;;5074858;28;20128;-61
2024/01/02 07:38:53;;;;;;;0.60;0.60;;;;;8.60;97016.00;;;;5074889;28;20436;-62
2024/01/02 07:41:20;;;;;;;0.68;0.60;;;;;8.60;97011.00;;;;5073508;28;20471;-61
2024/01/02 07:43:46;;;;;;;0.43;0.43;;;;;8.60;97031.00;;;;5073073;28;20144;-60
2024/01/02 07:46:14;;;;;;;0.60;0.60;;;;;8.60;97026.00;;;;5075042;28;20050;-62
2024/01/02 07:48:41;;;;;;;1.25;0.60;;;;;8.60;97030.00;;;;5074707;28;20040;-60
2024/01/02 07:51:07;;;;;;;1.40;0.60;;;;;8.60;97041.00;;;;5056753;28;20044;-61
2024/01/02 07:53:34;;;;;;;0.60;0.60;;;;;8.60;97035.00;;;;5073449;28;20127;-61
2024/01/02 07:56:04;;;;;;;0.70;0.70;;;;;8.70;97040.00;;;;5074896;28;20048;-60
2024/01/02 07:58:31;;;;;;;0.98;0.70;;;;;8.60;97023.00;;;;5073414;28;20113;-61
2024/01/02 08:00:58;;;;;;;1.77;0.70;;;;;8.70;97017.00;;;;5075355;28;20123;-62
2024/01/02 08:03:25;;;;;;;0.95;0.95;;;;;8.60;97035.00;;;;5073969;28;20052;-62
2024/01/02 08:05:51;;;;;;;0.50;0.50;;;;;8.60;97042.00;;;;5074482;28;20497;-61
2024/01/02 08:08:18;;;;;;;0.85;0.63;;;;;8.60;97037.00;;;;5072954;28;20058;-62
2024/01/02 08:10:45;;;;;;;0.47;0.47;;;;;8.60;97030.00;;;;5072893;28;20048;-62
2024/01/02 08:13:11;;;;;;;1.15;0.65;;;;;8.60;97027.00;;;;5074407;28;20127;-62
2024/01/02 08:15:38;;;;;;;1.90;0.63;;;;;8.60;97032.00;;;;5073897;28;20041;-63
2024/01/02 08:18:08;;;;;;;1.50;0.60;;;;;8.60;97031.00;;;;5075039;28;20079;-62
2024/01/02 08:20:36;;;;;;;1.25;1.00;;;;;8.60;97036.00;;;;5074429;28;20043;-63
2024/01/02 08:23:03;;;;;;;0.57;0.57;;;;;8.60;97033.00;;;;5072927;28;20071;-64
2024/01/02 08:25:30;;;;;;;0.70;0.70;;;;;8.60;97043.00;;;;5073497;28;20048;-61
2024/01/02 08:27:57;;;;;;;1.08;0.90;;;;;8.70;97050.00;;;;5074265;28;20409;-62
2024/01/02 08:30:23;;;;;;;2.80;0.60;;;;;8.60;97051.00;;;;5072959;28;20062;-61
2024/01/02 08:32:50;;;;;;;0.82;0.70;;;;;8.60;97064.00;;;;5072870;28;20127;-61
2024/01/02 08:35:17;;;;;;;1.25;0.70;;;;;8.60;97055.00;;;;5072193;28;20114;-62
2024/01/02 08:37:44;;;;;;;0.70;0.70;;;;;8.60;97047.00;;;;5074086;28;20054;-61
2024/01/02 08:40:11;;;;;;;0.80;0.80;;;;;8.60;97047.00;;;;5074079;28;20040;-62
2024/01/02 08:42:38;;;;;;;0.70;0.70;;;;;8.60;97055.00;;;;5074579;28;20062;-61
2024/01/02 08:45:05;;;;;;;0.73;0.73;;;;;8.60;97062.00;;;;5074540;28;20044;-61
2024/01/02 08:47:33;;;;;;;2.38;0.57;;;;;8.70;97062.00;;;;5074231;28;20075;-61
2024/01/02 08:50:00;;;;;;;0.60;0.60;;;;;8.80;97070.00;;;;5056939;28;20060;-62
2024/01/02 08:52:27;;;;;;;0.77;0.75;;;;;8.80;97071.00;;;;5073654;28;20052;-61
2024/01/02 08:54:54;;;;;;;0.75;0.63;;;;;8.90;97070.00;;;;5074494;28;20051;-62
2024/01/02 08:57:20;;;;;;;0.43;0.43;;;;;8.90;97074.00;;;;5075209;28;20447;-60
2024/01/02 08:59:47;;;;;;;1.27;0.57;;;;;8.90;97074.00;;;;5055948;28;20508;-61
2024/01/02 09:02:14;;;;;;;1.27;0.65;;;;;9.00;97063.00;;;;5072311;28;20048;-63
2024/01/02 09:04:43;;;;;;;0.80;0.70;;;;;9.00;97063.00;;;;5070581;28;20044;-62
2024/01/02 09:07:09;;;;;;;0.98;0.70;;;;;9.00;97056.00;;;;5073753;28;20052;-60
2024/01/02 09:09:36;;;;;;;0.60;0.60;;;;;9.00;97060.00;;;;5072363;28;20040;-61
2024/01/02 09:12:03;;;;;;;0.98;0.70;;;;;9.00;97062.00;;;;5073470;28;20566;-61
2024/01/02 09:14:30;;;;;;;1.15;0.68;;;;;9.00;97062.00;;;;5071495;28;20056;-60
2024/01/02 09:16:57;;;;;;;3.33;2.00;;;;;9.10;97057.00;;;;5073102;28;20047;-62
2024/01/02 09:19:24;;;;;;;7.30;1.00;;;;;9.10;97056.00;;;;5073089;28;20120;-61
2024/01/02 09:21:50;;;;;;;1.27;1.13;;;;;9.10;97054.00;;;;5071935;28;20409;-62
2024/01/02 09:24:19;;;;;;;0.68;0.60;;;;;9.10;97055.00;;;;5072424;28;20044;-61
2024/01/02 09:26:51;;;;;;;1.10;0.65;;;;;9.20;97054.00;;;;5072003;28;20142;-62
2024/01/02 09:29:21;;;;;;;0.80;0.60;;;;;9.20;97055.00;;;;5072869;28;20098;-61
2024/01/02 09:31:47;;;;;;;1.05;0.70;;;;;9.20;97062.00;;;;5055407;28;20040;-61
2024/01/02 09:34:14;;;;;;;0.60;0.60;;;;;9.20;97060.00;;;;5071128;28;20048;-62
2024/01/02 09:36:41;;;;;;;0.52;0.52;;;;;9.20;97066.00;;;;5071519;28;20494;-63
2024/01/02 09:39:08;;;;;;;1.05;0.80;;;;;9.20;97066.00;;;;5072700;28;20082;-61
2024/01/02 09:41:54;;;;;;;1.48;0.57;;;;;9.20;97066.00;;;;5071409;28;20044;-63
2024/01/02 09:44:53;;;;;;;3.28;0.93;;;;;9.30;97067.00;;;;5070906;28;20154;-61
2024/01/02 09:47:48;;;;;;;0.93;0.63;;;;;9.40;97069.00;;;;5072394;28;20060;-61
2024/01/02 09:50:27;;;;;;;3.28;0.60;;;;;9.40;97068.00;;;;5072369;28;20383;-61
2024/01/02 09:53:31;;;;;;;0.60;0.60;;;;;9.40;97062.00;;;;5071576;28;20045;-61
2024/01/02 09:56:10;;;;;;;0.70;0.63;;;;;9.40;97048.00;;;;5072268;28;20523;-62
2024/01/02 09:58:43;;;;;;;0.60;0.60;;;;;9.40;97050.00;;;;5072362;28;20108;-61
2024/01/02 10:01:27;;;;;;;0.50;0.50;;;;;9.40;97053.00;;;;5072604;28;20045;-62
2024/01/02 10:04:17;;;;;;;;;;;;;9.40;97050.00;;;;5072517;28;20066;-62
2024/01/02 10:06:58;;;;;;;0.73;0.60;;;;;9.50;97039.00;;;;5064276;28;20299;-63
2024/01/02 10:09:34;;;;;;;0.60;0.43;;;;;9.40;97040.00;;;;5072185;28;20040;-63
2024/01/02 10:12:03;;;;;;;0.55;0.55;;;;;9.50;97035.00;;;;5072161;28;20048;-64
2024/01/02 10:14:55;;;;;;;0.98;0.70;;;;;9.50;97045.00;;;;5053623;28;20491;-62
2024/01/02 10:17:52;;;;;;;0.88;0.85;;;;;9.50;97022.00;;;;5072025;28;20067;-62
2024/01/02 10:20:35;;;;;;;0.63;0.63;;;;;9.40;97014.00;;;;5070825;28;20090;-62
2024/01/02 10:23:40;;;;;;;0.60;0.60;;;;;9.50;97000.00;;;;5072177;28;20497;-62
2024/01/02 10:26:08;;;;;;;1.17;0.63;;;;;9.50;96997.00;;;;5070687;28;20048;-61
2024/01/02 10:28:37;;;;;;;0.50;0.50;;;;;9.60;97007.00;;;;5072049;28;20171;-60
2024/01/02 10:31:35;;;;;;;0.65;0.65;;;;;9.60;97002.00;;;;5071956;28;20098;-61
2024/01/02 10:34:39;;;;;;;1.40;0.77;;;;;9.60;96988.00;;;;5069571;28;20497;-61
2024/01/02 10:37:06;;;;;;;0.65;0.55;;;;;9.60;96990.00;;;;5070711;28;20083;-62
2024/01/02 10:39:39;;;;;;;1.25;0.55;;;;;9.60;96981.00;;;;5070519;28;20052;-62
2024/01/02 10:42:46;;;;;;;1.48;0.50;;;;;9.60;96971.00;;;;5072054;28;20127;-61
2024/01/02 10:45:24;;;;;;;0.63;0.40;;;;;9.60;96969.00;;;;5071829;28;20074;-62
2024/01/02 10:48:13;;;;;;;0.57;0.57;;;;;9.60;96965.00;;;;5071323;28;20102;-62
2024/01/02 10:50:57;;;;;;;0.70;0.70;;;;;9.70;96958.00;;;;5070763;28;20048;-61
2024/01/02 10:53:39;;;;;;;0.50;0.40;;;;;9.70;96961.00;;;;5053398;28;20596;-66
2024/01/02 10:56:26;;;;;;;0.40;0.40;;;;;9.70;96944.00;;;;5071768;28;20468;-62
2024/01/02 10:59:07;;;;;;;0.63;0.50;;;;;9.70;96957.00;;;;5070921;28;20115;-61
2024/01/02 11:01:37;;;;;;;0.50;0.50;;;;;9.70;96943.00;;;;5071699;28;20111;-62
2024/01/02 11:04:21;;;;;;;0.75;0.57;;;;;9.80;96936.00;;;;5071134;28;20130;-62
2024/01/02 11:07:05;;;;;;;1.45;0.55;;;;;9.80;96937.00;;;;5070446;28;20048;-62
2024/01/02 11:09:42;;;;;;;0.30;0.30;;;;;9.80;96925.00;;;;5071505;28;20736;-62
2024/01/02 11:12:08;;;;;;;0.40;0.40;;;;;9.80;96939.00;;;;5070314;28;20055;-62
2024/01/02 11:14:43;;;;;;;2.55;1.63;;;;;9.80;96934.00;;;;5069792;28;20044;-61
2024/01/02 11:17:15;;;;;;;1.30;0.80;;;;;9.80;96932.00;;;;5053628;28;20057;-62
2024/01/02 11:20:00;;;;;;;0.75;0.70;;;;;9.70;96929.00;;;;5070168;28;20414;-62
2024/01/02 11:22:50;;;;;;;0.45;0.40;;;;;9.70;96932.00;;;;5071725;28;20040;-60
2024/01/02 11:25:18;;;;;;;0.55;0.55;;;;;9.70;96917.00;;;;5070672;28;20489;-62
2024/01/02 11:28:02;;;;;;;1.17;1.08;;;;;9.70;96922.00;;;;5072327;28;20410;-63
2024/01/02 11:30:34;;;;;;;0.70;0.70;;;;;9.70;96903.00;;;;5074829;28;20048;-61
2024/01/02 11:33:31;;;;;;;0.68;0.52;;;;;9.70;96910.00;;;;5075015;28;20573;-62
2024/01/02 11:36:32;;;;;;;0.40;0.40;;;;;9.70;96902.00;;;;5073672;28;20131;-62
2024/01/02 11:39:20;;;;;;;0.60;0.60;;;;;9.70;96896.00;;;;5050880;28;20055;-61
2024/01/02 11:42:04;;;;;;;0.52;0.52;;;;;9.60;96896.00;;;;5073657;28;20052;-63
2024/01/02 11:45:08;;;;;;;0.43;0.43;;;;;9.70;96899.00;;;;5074306;28;20068;-62
2024/01/02 11:47:45;;;;;;;0.50;0.50;;;;;9.60;96884.00;;;;5075181;28;20271;-64
2024/01/02 11:50:15;;;;;;;0.50;0.50;;;;;9.70;96883.00;;;;5074858;28;20048;-62
2024/01/02 11:53:00;;;;;;;1.05;0.80;;;;;9.80;96877.00;;;;5074677;28;20037;-63
2024/01/02 11:55:41;;;;;;;2.08;0.70;;;;;9.70;96862.00;;;;5074066;28;20100;-64
2024/01/02 11:58:12;;;;;;;0.70;0.70;;;;;9.70;96861.00;;;;5073296;28;20520;-63
2024/01/02 12:00:54;;;;;;;0.65;0.65;;;;;9.70;96870.00;;;;5074545;28;20036;-63
2024/01/02 12:03:54;;;;;;;1.23;0.70;;;;;9.70;96852.00;;;;5073053;28;20143;-62
2024/01/02 12:06:51;;;;;;;0.50;0.50;;;;;9.70;96836.00;;;;5074196;28;20127;-61
2024/01/02 12:09:19;;;;;;;0.70;0.70;;;;;9.70;96835.00;;;;5047859;28;20052;-61
2024/01/02 12:12:27;;;;;;;1.75;0.40;;;;;9.70;96819.00;;;;5074345;28;20045;-63
2024/01/02 12:15:24;;;;;;;2.00;0.50;;;;;9.60;96814.00;;;;5072486;28;20040;-61
2024/01/02 12:17:58;;;;;;;0.98;0.50;;;;;9.60;96823.00;;;;5073187;28;20067;-61
2024/01/02 12:20:27;;;;;;;0.35;0.35;;;;;9.60;96825.00;;;;5074442;28;20075;-61
2024/01/02 12:22:55;;;;;;;8.70;4.40;;;;;9.60;96794.00;;;;5073059;28;20051;-62
2024/01/02 12:25:22;;;;;;;4.20;1.23;;;;;9.70;96800.00;;;;5073599;28;20090;-62
2024/01/02 12:27:53;;;;;;;0.60;0.60;;;;;9.70;96792.00;;;;5074133;28;20478;-61
2024/01/02 12:30:22;;;;;;;1.67;0.70;;;;;9.80;96784.00;;;;5074002;28;20068;-61
2024/01/02 12:33:11;;;;;;;9.05;4.07;;;;;9.80;96781.00;;;;5073970;28;20040;-61
2024/01/02 12:36:05;;;;;;;1.08;0.98;;;;;9.80;96780.00;;;;5072163;28;20044;-62
2024/01/02 12:38:51;;;;;;;0.95;0.80;;;;;9.80;96770.00;;;;5072411;28;20052;-63
2024/01/02 12:41:26;;;;;;;0.80;0.70;;;;;9.80;96762.00;;;;5073666;28;20045;-61
2024/01/02 12:43:57;;;;;;;0.63;0.63;;;;;9.80;96752.00;;;;5073105;28;20049;-62